sensor_id;sensor_type;location;lat;lon;timestamp;P1;durP1;ratioP1;P2;durP2;ratioP2
13975;SDS011;7062;49.792;9.946;2023-06-10T00:02:10;8.67;;;7.77;;
13975;SDS011;7062;49.792;9.946;2023-06-10T00:04:36;10.57;;;8.87;;
13975;SDS011;7062;49.792;9.946;2023-06-10T00:07:05;8.90;;;8.17;;
13975;SDS011;7062;49.792;9.946;2023-06-10T00:09:34;8.73;;;7.93;;
13975;SDS011;7062;49.792;9.946;2023-06-10T00:12:03;9.37;;;8.40;;
13975;SDS011;7062;49.792;9.946;2023-06-10T00:14:30;8.10;;;7.43;;
13975;SDS011;7062;49.792;9.946;2023-06-10T00:16:55;11.57;;;8.90;;
13975;SDS011;7062;49.792;9.946;2023-06-10T00:19:22;9.27;;;8.37;;
13975;SDS011;7062;49.792;9.946;2023-06-10T00:21:54;8.47;;;7.67;;
13975;SDS011;7062;49.792;9.946;2023-06-10T00:24:21;8.40;;;7.60;;
13975;SDS011;7062;49.792;9.946;2023-06-10T00:26:47;8.03;;;7.23;;
13975;SDS011;7062;49.792;9.946;2023-06-10T00:29:12;8.33;;;7.63;;
13975;SDS011;7062;49.792;9.946;2023-06-10T00:31:39;9.20;;;8.30;;
13975;SDS011;7062;49.792;9.946;2023-06-10T00:34:05;12.30;;;8.87;;
13975;SDS011;7062;49.792;9.946;2023-06-10T00:36:32;9.43;;;8.60;;
13975;SDS011;7062;49.792;9.946;2023-06-10T00:38:57;8.60;;;7.90;;
13975;SDS011;7062;49.792;9.946;2023-06-10T00:41:23;8.97;;;8.10;;
13975;SDS011;7062;49.792;9.946;2023-06-10T00:43:51;8.77;;;8.07;;
13975;SDS011;7062;49.792;9.946;2023-06-10T00:46:17;11.93;;;8.27;;
13975;SDS011;7062;49.792;9.946;2023-06-10T00:48:43;8.90;;;8.00;;
13975;SDS011;7062;49.792;9.946;2023-06-10T00:51:10;9.03;;;8.23;;
13975;SDS011;7062;49.792;9.946;2023-06-10T00:53:37;8.70;;;7.90;;
13975;SDS011;7062;49.792;9.946;2023-06-10T00:56:05;8.33;;;7.63;;
13975;SDS011;7062;49.792;9.946;2023-06-10T00:58:31;9.87;;;8.27;;
13975;SDS011;7062;49.792;9.946;2023-06-10T01:00:57;11.73;;;8.40;;
13975;SDS011;7062;49.792;9.946;2023-06-10T01:03:23;8.77;;;7.97;;
13975;SDS011;7062;49.792;9.946;2023-06-10T01:05:51;9.80;;;8.47;;
13975;SDS011;7062;49.792;9.946;2023-06-10T01:11:07;9.00;;;8.20;;
13975;SDS011;7062;49.792;9.946;2023-06-10T01:13:38;8.87;;;8.17;;
13975;SDS011;7062;49.792;9.946;2023-06-10T01:16:06;9.20;;;8.40;;
13975;SDS011;7062;49.792;9.946;2023-06-10T01:18:32;8.87;;;8.17;;
13975;SDS011;7062;49.792;9.946;2023-06-10T01:20:58;8.97;;;8.10;;
13975;SDS011;7062;49.792;9.946;2023-06-10T01:23:24;11.40;;;10.30;;
13975;SDS011;7062;49.792;9.946;2023-06-10T01:25:53;12.40;;;9.87;;
13975;SDS011;7062;49.792;9.946;2023-06-10T01:29:12;10.30;;;9.17;;
13975;SDS011;7062;49.792;9.946;2023-06-10T01:31:31;10.57;;;9.53;;
13975;SDS011;7062;49.792;9.946;2023-06-10T01:34:07;11.00;;;9.93;;
13975;SDS011;7062;49.792;9.946;2023-06-10T01:36:35;9.13;;;8.33;;
13975;SDS011;7062;49.792;9.946;2023-06-10T01:39:02;9.67;;;8.77;;
13975;SDS011;7062;49.792;9.946;2023-06-10T01:41:29;9.43;;;8.47;;
13975;SDS011;7062;49.792;9.946;2023-06-10T01:43:56;9.27;;;8.47;;
13975;SDS011;7062;49.792;9.946;2023-06-10T01:46:22;11.17;;;9.33;;
13975;SDS011;7062;49.792;9.946;2023-06-10T01:48:48;13.50;;;9.30;;
13975;SDS011;7062;49.792;9.946;2023-06-10T01:51:13;11.10;;;10.10;;
13975;SDS011;7062;49.792;9.946;2023-06-10T01:53:39;9.33;;;8.53;;
13975;SDS011;7062;49.792;9.946;2023-06-10T01:56:05;10.60;;;9.60;;
13975;SDS011;7062;49.792;9.946;2023-06-10T01:58:30;8.80;;;7.97;;
13975;SDS011;7062;49.792;9.946;2023-06-10T02:00:56;9.57;;;8.53;;
13975;SDS011;7062;49.792;9.946;2023-06-10T02:03:22;10.60;;;9.50;;
13975;SDS011;7062;49.792;9.946;2023-06-10T02:05:48;9.77;;;8.77;;
13975;SDS011;7062;49.792;9.946;2023-06-10T02:08:14;10.50;;;8.37;;
13975;SDS011;7062;49.792;9.946;2023-06-10T02:10:40;10.70;;;8.57;;
13975;SDS011;7062;49.792;9.946;2023-06-10T02:13:05;9.60;;;8.70;;
13975;SDS011;7062;49.792;9.946;2023-06-10T02:15:31;10.67;;;9.70;;
13975;SDS011;7062;49.792;9.946;2023-06-10T02:17:57;10.93;;;9.83;;
13975;SDS011;7062;49.792;9.946;2023-06-10T02:20:22;10.67;;;9.07;;
13975;SDS011;7062;49.792;9.946;2023-06-10T02:22:48;9.83;;;9.03;;
13975;SDS011;7062;49.792;9.946;2023-06-10T02:25:14;8.73;;;8.03;;
13975;SDS011;7062;49.792;9.946;2023-06-10T02:27:40;10.13;;;9.10;;
13975;SDS011;7062;49.792;9.946;2023-06-10T02:30:05;10.80;;;9.70;;
13975;SDS011;7062;49.792;9.946;2023-06-10T02:32:34;9.50;;;8.60;;
13975;SDS011;7062;49.792;9.946;2023-06-10T02:35:00;11.33;;;9.43;;
13975;SDS011;7062;49.792;9.946;2023-06-10T02:37:25;10.83;;;9.73;;
13975;SDS011;7062;49.792;9.946;2023-06-10T02:39:51;11.07;;;9.97;;
13975;SDS011;7062;49.792;9.946;2023-06-10T02:42:16;10.57;;;9.63;;
13975;SDS011;7062;49.792;9.946;2023-06-10T02:44:42;9.87;;;8.80;;
13975;SDS011;7062;49.792;9.946;2023-06-10T02:47:07;11.10;;;9.87;;
13975;SDS011;7062;49.792;9.946;2023-06-10T02:49:33;10.00;;;9.03;;
13975;SDS011;7062;49.792;9.946;2023-06-10T02:51:59;11.97;;;10.30;;
13975;SDS011;7062;49.792;9.946;2023-06-10T02:54:25;10.50;;;9.43;;
13975;SDS011;7062;49.792;9.946;2023-06-10T02:56:51;10.93;;;10.03;;
13975;SDS011;7062;49.792;9.946;2023-06-10T02:59:17;10.07;;;9.07;;
13975;SDS011;7062;49.792;9.946;2023-06-10T03:01:43;10.23;;;9.40;;
13975;SDS011;7062;49.792;9.946;2023-06-10T03:04:09;11.80;;;10.80;;
13975;SDS011;7062;49.792;9.946;2023-06-10T03:06:37;10.57;;;9.57;;
13975;SDS011;7062;49.792;9.946;2023-06-10T03:09:03;11.20;;;10.23;;
13975;SDS011;7062;49.792;9.946;2023-06-10T03:11:29;11.10;;;10.10;;
13975;SDS011;7062;49.792;9.946;2023-06-10T03:13:55;10.87;;;9.97;;
13975;SDS011;7062;49.792;9.946;2023-06-10T03:16:22;10.87;;;9.90;;
13975;SDS011;7062;49.792;9.946;2023-06-10T03:18:50;10.10;;;9.17;;
13975;SDS011;7062;49.792;9.946;2023-06-10T03:21:16;11.13;;;10.13;;
13975;SDS011;7062;49.792;9.946;2023-06-10T03:23:41;11.80;;;10.70;;
13975;SDS011;7062;49.792;9.946;2023-06-10T03:26:07;10.27;;;9.47;;
13975;SDS011;7062;49.792;9.946;2023-06-10T03:28:34;11.77;;;10.57;;
13975;SDS011;7062;49.792;9.946;2023-06-10T03:31:00;10.30;;;9.40;;
13975;SDS011;7062;49.792;9.946;2023-06-10T03:33:26;10.53;;;9.63;;
13975;SDS011;7062;49.792;9.946;2023-06-10T03:35:51;10.30;;;9.40;;
13975;SDS011;7062;49.792;9.946;2023-06-10T03:38:17;12.40;;;10.53;;
13975;SDS011;7062;49.792;9.946;2023-06-10T03:40:43;12.23;;;10.10;;
13975;SDS011;7062;49.792;9.946;2023-06-10T03:43:09;10.80;;;9.90;;
13975;SDS011;7062;49.792;9.946;2023-06-10T03:45:35;11.80;;;9.13;;
13975;SDS011;7062;49.792;9.946;2023-06-10T03:48:01;10.17;;;9.27;;
13975;SDS011;7062;49.792;9.946;2023-06-10T03:50:28;10.30;;;9.30;;
13975;SDS011;7062;49.792;9.946;2023-06-10T03:52:54;10.57;;;9.70;;
13975;SDS011;7062;49.792;9.946;2023-06-10T03:55:20;10.73;;;9.57;;
13975;SDS011;7062;49.792;9.946;2023-06-10T03:57:46;11.37;;;10.47;;
13975;SDS011;7062;49.792;9.946;2023-06-10T04:00:13;10.23;;;9.43;;
13975;SDS011;7062;49.792;9.946;2023-06-10T04:02:40;10.90;;;9.80;;
13975;SDS011;7062;49.792;9.946;2023-06-10T04:05:14;11.47;;;10.27;;
13975;SDS011;7062;49.792;9.946;2023-06-10T04:07:41;10.80;;;9.90;;
13975;SDS011;7062;49.792;9.946;2023-06-10T04:10:08;10.77;;;9.73;;
13975;SDS011;7062;49.792;9.946;2023-06-10T04:12:34;10.60;;;9.47;;
13975;SDS011;7062;49.792;9.946;2023-06-10T04:15:01;11.93;;;10.70;;
13975;SDS011;7062;49.792;9.946;2023-06-10T04:17:27;10.70;;;9.87;;
13975;SDS011;7062;49.792;9.946;2023-06-10T04:19:52;10.63;;;9.63;;
13975;SDS011;7062;49.792;9.946;2023-06-10T04:22:19;11.50;;;10.50;;
13975;SDS011;7062;49.792;9.946;2023-06-10T04:24:45;12.27;;;9.57;;
13975;SDS011;7062;49.792;9.946;2023-06-10T04:27:11;10.63;;;9.43;;
13975;SDS011;7062;49.792;9.946;2023-06-10T04:29:37;11.87;;;10.27;;
13975;SDS011;7062;49.792;9.946;2023-06-10T04:32:02;12.20;;;9.70;;
13975;SDS011;7062;49.792;9.946;2023-06-10T04:34:30;10.07;;;9.27;;
13975;SDS011;7062;49.792;9.946;2023-06-10T04:36:56;11.70;;;10.60;;
13975;SDS011;7062;49.792;9.946;2023-06-10T04:39:21;10.13;;;9.23;;
13975;SDS011;7062;49.792;9.946;2023-06-10T04:41:47;11.47;;;9.97;;
13975;SDS011;7062;49.792;9.946;2023-06-10T04:44:13;10.33;;;9.37;;
13975;SDS011;7062;49.792;9.946;2023-06-10T04:46:38;11.13;;;10.03;;
13975;SDS011;7062;49.792;9.946;2023-06-10T04:49:04;10.53;;;9.63;;
13975;SDS011;7062;49.792;9.946;2023-06-10T04:51:30;11.53;;;10.13;;
13975;SDS011;7062;49.792;9.946;2023-06-10T04:53:57;10.20;;;9.23;;
13975;SDS011;7062;49.792;9.946;2023-06-10T04:56:23;12.60;;;8.97;;
13975;SDS011;7062;49.792;9.946;2023-06-10T04:58:49;10.40;;;9.50;;
13975;SDS011;7062;49.792;9.946;2023-06-10T05:01:15;14.13;;;10.67;;
13975;SDS011;7062;49.792;9.946;2023-06-10T05:03:40;12.67;;;9.93;;
13975;SDS011;7062;49.792;9.946;2023-06-10T05:06:06;10.87;;;9.70;;
13975;SDS011;7062;49.792;9.946;2023-06-10T05:08:32;14.60;;;10.33;;
13975;SDS011;7062;49.792;9.946;2023-06-10T05:10:58;11.97;;;9.73;;
13975;SDS011;7062;49.792;9.946;2023-06-10T05:13:24;11.00;;;9.97;;
13975;SDS011;7062;49.792;9.946;2023-06-10T05:15:49;11.57;;;10.43;;
13975;SDS011;7062;49.792;9.946;2023-06-10T05:18:15;10.20;;;9.37;;
13975;SDS011;7062;49.792;9.946;2023-06-10T05:20:41;10.83;;;9.63;;
13975;SDS011;7062;49.792;9.946;2023-06-10T05:23:06;10.13;;;9.23;;
13975;SDS011;7062;49.792;9.946;2023-06-10T05:25:32;9.43;;;8.63;;
13975;SDS011;7062;49.792;9.946;2023-06-10T05:27:58;9.60;;;8.77;;
13975;SDS011;7062;49.792;9.946;2023-06-10T05:30:24;17.00;;;9.10;;
13975;SDS011;7062;49.792;9.946;2023-06-10T05:32:50;9.50;;;8.60;;
13975;SDS011;7062;49.792;9.946;2023-06-10T05:35:17;10.67;;;9.57;;
13975;SDS011;7062;49.792;9.946;2023-06-10T05:37:42;8.93;;;8.20;;
13975;SDS011;7062;49.792;9.946;2023-06-10T05:40:09;9.37;;;8.43;;
13975;SDS011;7062;49.792;9.946;2023-06-10T05:42:35;8.03;;;7.33;;
13975;SDS011;7062;49.792;9.946;2023-06-10T05:45:01;8.87;;;8.17;;
13975;SDS011;7062;49.792;9.946;2023-06-10T05:47:27;9.37;;;8.47;;
13975;SDS011;7062;49.792;9.946;2023-06-10T05:49:53;9.90;;;8.90;;
13975;SDS011;7062;49.792;9.946;2023-06-10T05:52:19;8.20;;;7.40;;
13975;SDS011;7062;49.792;9.946;2023-06-10T05:54:44;9.27;;;8.47;;
13975;SDS011;7062;49.792;9.946;2023-06-10T05:57:10;10.10;;;8.33;;
13975;SDS011;7062;49.792;9.946;2023-06-10T05:59:36;8.90;;;8.17;;
13975;SDS011;7062;49.792;9.946;2023-06-10T06:02:01;9.20;;;8.40;;
13975;SDS011;7062;49.792;9.946;2023-06-10T06:04:27;9.00;;;8.17;;
13975;SDS011;7062;49.792;9.946;2023-06-10T06:06:53;9.43;;;8.50;;
13975;SDS011;7062;49.792;9.946;2023-06-10T06:09:18;9.47;;;8.13;;
13975;SDS011;7062;49.792;9.946;2023-06-10T06:11:44;9.03;;;8.27;;
13975;SDS011;7062;49.792;9.946;2023-06-10T06:14:10;8.93;;;7.33;;
13975;SDS011;7062;49.792;9.946;2023-06-10T06:16:35;8.70;;;8.00;;
13975;SDS011;7062;49.792;9.946;2023-06-10T06:19:01;8.43;;;7.67;;
13975;SDS011;7062;49.792;9.946;2023-06-10T06:21:27;9.20;;;8.40;;
13975;SDS011;7062;49.792;9.946;2023-06-10T06:23:52;8.23;;;7.30;;
13975;SDS011;7062;49.792;9.946;2023-06-10T06:26:18;8.10;;;7.30;;
13975;SDS011;7062;49.792;9.946;2023-06-10T06:28:43;8.63;;;7.83;;
13975;SDS011;7062;49.792;9.946;2023-06-10T06:31:09;8.20;;;7.40;;
13975;SDS011;7062;49.792;9.946;2023-06-10T06:33:36;7.80;;;7.03;;
13975;SDS011;7062;49.792;9.946;2023-06-10T06:36:01;7.23;;;6.53;;
13975;SDS011;7062;49.792;9.946;2023-06-10T06:38:27;7.07;;;6.37;;
13975;SDS011;7062;49.792;9.946;2023-06-10T06:40:53;11.17;;;6.20;;
13975;SDS011;7062;49.792;9.946;2023-06-10T06:43:19;8.17;;;7.30;;
13975;SDS011;7062;49.792;9.946;2023-06-10T06:45:45;10.20;;;7.67;;
13975;SDS011;7062;49.792;9.946;2023-06-10T06:48:11;7.63;;;6.93;;
13975;SDS011;7062;49.792;9.946;2023-06-10T06:50:37;8.50;;;7.60;;
13975;SDS011;7062;49.792;9.946;2023-06-10T06:53:03;7.67;;;7.07;;
13975;SDS011;7062;49.792;9.946;2023-06-10T06:55:29;10.97;;;8.43;;
13975;SDS011;7062;49.792;9.946;2023-06-10T06:57:55;8.33;;;7.50;;
13975;SDS011;7062;49.792;9.946;2023-06-10T07:00:21;8.90;;;8.20;;
13975;SDS011;7062;49.792;9.946;2023-06-10T07:02:48;7.90;;;7.20;;
13975;SDS011;7062;49.792;9.946;2023-06-10T07:05:13;8.43;;;7.73;;
13975;SDS011;7062;49.792;9.946;2023-06-10T07:07:39;8.30;;;7.60;;
13975;SDS011;7062;49.792;9.946;2023-06-10T07:10:05;8.40;;;7.53;;
13975;SDS011;7062;49.792;9.946;2023-06-10T07:12:31;9.70;;;8.10;;
13975;SDS011;7062;49.792;9.946;2023-06-10T07:14:56;8.43;;;7.73;;
13975;SDS011;7062;49.792;9.946;2023-06-10T07:17:22;7.97;;;7.27;;
13975;SDS011;7062;49.792;9.946;2023-06-10T07:19:48;8.43;;;7.67;;
13975;SDS011;7062;49.792;9.946;2023-06-10T07:22:13;8.80;;;8.00;;
13975;SDS011;7062;49.792;9.946;2023-06-10T07:24:40;8.33;;;7.63;;
13975;SDS011;7062;49.792;9.946;2023-06-10T07:27:05;8.43;;;7.63;;
13975;SDS011;7062;49.792;9.946;2023-06-10T07:29:32;8.57;;;7.77;;
13975;SDS011;7062;49.792;9.946;2023-06-10T07:31:57;9.50;;;8.57;;
13975;SDS011;7062;49.792;9.946;2023-06-10T07:34:23;9.40;;;8.50;;
13975;SDS011;7062;49.792;9.946;2023-06-10T07:36:49;8.83;;;7.97;;
13975;SDS011;7062;49.792;9.946;2023-06-10T07:39:14;8.80;;;8.00;;
13975;SDS011;7062;49.792;9.946;2023-06-10T07:41:40;7.93;;;7.13;;
13975;SDS011;7062;49.792;9.946;2023-06-10T07:44:06;9.20;;;8.13;;
13975;SDS011;7062;49.792;9.946;2023-06-10T07:46:32;8.67;;;7.73;;
13975;SDS011;7062;49.792;9.946;2023-06-10T07:48:57;7.47;;;6.87;;
13975;SDS011;7062;49.792;9.946;2023-06-10T07:51:23;7.93;;;7.17;;
13975;SDS011;7062;49.792;9.946;2023-06-10T07:53:48;7.57;;;6.87;;
13975;SDS011;7062;49.792;9.946;2023-06-10T07:56:14;8.00;;;7.30;;
13975;SDS011;7062;49.792;9.946;2023-06-10T07:58:40;7.77;;;7.17;;
13975;SDS011;7062;49.792;9.946;2023-06-10T08:01:05;8.23;;;7.43;;
13975;SDS011;7062;49.792;9.946;2023-06-10T08:03:32;7.30;;;6.70;;
13975;SDS011;7062;49.792;9.946;2023-06-10T08:05:58;6.70;;;6.10;;
13975;SDS011;7062;49.792;9.946;2023-06-10T08:08:23;7.17;;;6.57;;
13975;SDS011;7062;49.792;9.946;2023-06-10T08:10:49;6.87;;;6.27;;
13975;SDS011;7062;49.792;9.946;2023-06-10T08:13:15;7.33;;;6.63;;
13975;SDS011;7062;49.792;9.946;2023-06-10T08:15:40;7.70;;;6.93;;
13975;SDS011;7062;49.792;9.946;2023-06-10T08:18:06;7.10;;;6.50;;
13975;SDS011;7062;49.792;9.946;2023-06-10T08:20:32;7.47;;;6.77;;
13975;SDS011;7062;49.792;9.946;2023-06-10T08:22:57;6.57;;;6.07;;
13975;SDS011;7062;49.792;9.946;2023-06-10T08:25:23;7.83;;;7.13;;
13975;SDS011;7062;49.792;9.946;2023-06-10T08:27:49;8.13;;;6.77;;
13975;SDS011;7062;49.792;9.946;2023-06-10T08:30:17;9.73;;;6.10;;
13975;SDS011;7062;49.792;9.946;2023-06-10T08:32:43;7.03;;;6.43;;
13975;SDS011;7062;49.792;9.946;2023-06-10T08:35:08;8.00;;;6.83;;
13975;SDS011;7062;49.792;9.946;2023-06-10T08:37:34;7.20;;;6.60;;
13975;SDS011;7062;49.792;9.946;2023-06-10T08:40:00;6.27;;;5.77;;
13975;SDS011;7062;49.792;9.946;2023-06-10T08:42:39;7.83;;;6.47;;
13975;SDS011;7062;49.792;9.946;2023-06-10T08:45:10;6.63;;;6.10;;
13975;SDS011;7062;49.792;9.946;2023-06-10T08:47:42;6.80;;;6.10;;
13975;SDS011;7062;49.792;9.946;2023-06-10T08:50:10;6.00;;;5.53;;
13975;SDS011;7062;49.792;9.946;2023-06-10T08:52:37;6.03;;;5.53;;
13975;SDS011;7062;49.792;9.946;2023-06-10T08:55:15;6.37;;;5.77;;
13975;SDS011;7062;49.792;9.946;2023-06-10T08:58:03;6.60;;;5.67;;
13975;SDS011;7062;49.792;9.946;2023-06-10T09:00:29;6.53;;;5.87;;
13975;SDS011;7062;49.792;9.946;2023-06-10T09:02:56;6.37;;;5.73;;
13975;SDS011;7062;49.792;9.946;2023-06-10T09:05:23;5.30;;;4.80;;
13975;SDS011;7062;49.792;9.946;2023-06-10T09:07:49;6.10;;;5.23;;
13975;SDS011;7062;49.792;9.946;2023-06-10T09:10:17;5.97;;;5.47;;
13975;SDS011;7062;49.792;9.946;2023-06-10T09:12:43;5.83;;;5.40;;
13975;SDS011;7062;49.792;9.946;2023-06-10T09:15:09;5.67;;;4.93;;
13975;SDS011;7062;49.792;9.946;2023-06-10T09:17:36;6.00;;;5.40;;
13975;SDS011;7062;49.792;9.946;2023-06-10T09:20:03;5.17;;;4.67;;
13975;SDS011;7062;49.792;9.946;2023-06-10T09:22:29;4.60;;;4.30;;
13975;SDS011;7062;49.792;9.946;2023-06-10T09:25:33;5.50;;;4.90;;
13975;SDS011;7062;49.792;9.946;2023-06-10T09:27:59;4.97;;;4.47;;
13975;SDS011;7062;49.792;9.946;2023-06-10T09:30:28;5.30;;;4.80;;
13975;SDS011;7062;49.792;9.946;2023-06-10T09:32:56;5.03;;;4.63;;
13975;SDS011;7062;49.792;9.946;2023-06-10T09:35:23;4.83;;;4.27;;
13975;SDS011;7062;49.792;9.946;2023-06-10T09:37:53;5.60;;;4.43;;
13975;SDS011;7062;49.792;9.946;2023-06-10T09:40:20;4.57;;;4.17;;
13975;SDS011;7062;49.792;9.946;2023-06-10T09:42:46;5.10;;;4.57;;
13975;SDS011;7062;49.792;9.946;2023-06-10T09:45:19;5.17;;;4.50;;
13975;SDS011;7062;49.792;9.946;2023-06-10T09:47:46;5.60;;;4.33;;
13975;SDS011;7062;49.792;9.946;2023-06-10T09:50:12;4.43;;;4.03;;
13975;SDS011;7062;49.792;9.946;2023-06-10T09:52:38;5.00;;;3.87;;
13975;SDS011;7062;49.792;9.946;2023-06-10T09:55:04;4.07;;;3.73;;
13975;SDS011;7062;49.792;9.946;2023-06-10T09:57:33;4.40;;;3.57;;
13975;SDS011;7062;49.792;9.946;2023-06-10T10:00:03;4.70;;;4.30;;
13975;SDS011;7062;49.792;9.946;2023-06-10T10:02:30;4.27;;;3.97;;
13975;SDS011;7062;49.792;9.946;2023-06-10T10:05:03;4.33;;;4.03;;
13975;SDS011;7062;49.792;9.946;2023-06-10T10:07:29;5.00;;;4.60;;
13975;SDS011;7062;49.792;9.946;2023-06-10T10:09:55;5.77;;;5.27;;
13975;SDS011;7062;49.792;9.946;2023-06-10T10:12:21;5.73;;;5.23;;
13975;SDS011;7062;49.792;9.946;2023-06-10T10:14:48;6.90;;;6.30;;
13975;SDS011;7062;49.792;9.946;2023-06-10T10:17:15;5.67;;;5.30;;
13975;SDS011;7062;49.792;9.946;2023-06-10T10:19:53;6.10;;;5.63;;
13975;SDS011;7062;49.792;9.946;2023-06-10T10:22:25;5.43;;;5.10;;
13975;SDS011;7062;49.792;9.946;2023-06-10T10:24:57;6.07;;;5.57;;
13975;SDS011;7062;49.792;9.946;2023-06-10T10:27:27;7.03;;;5.10;;
13975;SDS011;7062;49.792;9.946;2023-06-10T10:29:58;6.43;;;4.97;;
13975;SDS011;7062;49.792;9.946;2023-06-10T10:35:17;5.93;;;5.53;;
13975;SDS011;7062;49.792;9.946;2023-06-10T10:37:46;5.77;;;5.43;;
13975;SDS011;7062;49.792;9.946;2023-06-10T10:40:12;4.83;;;4.53;;
13975;SDS011;7062;49.792;9.946;2023-06-10T10:42:39;5.63;;;5.13;;
13975;SDS011;7062;49.792;9.946;2023-06-10T10:45:06;5.30;;;4.63;;
13975;SDS011;7062;49.792;9.946;2023-06-10T10:47:33;5.23;;;4.77;;
13975;SDS011;7062;49.792;9.946;2023-06-10T10:50:00;5.50;;;4.97;;
13975;SDS011;7062;49.792;9.946;2023-06-10T10:52:28;5.33;;;4.93;;
13975;SDS011;7062;49.792;9.946;2023-06-10T10:55:32;6.00;;;5.60;;
13975;SDS011;7062;49.792;9.946;2023-06-10T10:58:04;5.43;;;5.03;;
13975;SDS011;7062;49.792;9.946;2023-06-10T11:03:04;4.40;;;4.10;;
13975;SDS011;7062;49.792;9.946;2023-06-10T11:05:42;6.00;;;4.17;;
13975;SDS011;7062;49.792;9.946;2023-06-10T11:08:12;3.87;;;3.57;;
13975;SDS011;7062;49.792;9.946;2023-06-10T11:10:50;3.97;;;3.57;;
13975;SDS011;7062;49.792;9.946;2023-06-10T11:13:20;4.47;;;4.07;;
13975;SDS011;7062;49.792;9.946;2023-06-10T11:15:47;4.43;;;3.23;;
13975;SDS011;7062;49.792;9.946;2023-06-10T11:18:24;6.27;;;3.70;;
13975;SDS011;7062;49.792;9.946;2023-06-10T11:28:38;4.60;;;4.03;;
13975;SDS011;7062;49.792;9.946;2023-06-10T11:31:04;4.57;;;4.23;;
13975;SDS011;7062;49.792;9.946;2023-06-10T11:33:31;4.73;;;4.30;;
13975;SDS011;7062;49.792;9.946;2023-06-10T11:35:57;4.10;;;3.80;;
13975;SDS011;7062;49.792;9.946;2023-06-10T11:38:23;4.50;;;4.13;;
13975;SDS011;7062;49.792;9.946;2023-06-10T11:40:50;4.37;;;3.40;;
13975;SDS011;7062;49.792;9.946;2023-06-10T11:43:19;3.83;;;3.47;;
13975;SDS011;7062;49.792;9.946;2023-06-10T11:45:45;3.73;;;3.43;;
13975;SDS011;7062;49.792;9.946;2023-06-10T11:48:12;4.10;;;3.53;;
13975;SDS011;7062;49.792;9.946;2023-06-10T11:50:37;6.97;;;3.30;;
13975;SDS011;7062;49.792;9.946;2023-06-10T11:53:03;3.43;;;3.13;;
13975;SDS011;7062;49.792;9.946;2023-06-10T11:55:40;3.30;;;2.80;;
13975;SDS011;7062;49.792;9.946;2023-06-10T12:00:45;3.63;;;3.33;;
13975;SDS011;7062;49.792;9.946;2023-06-10T12:03:16;3.97;;;3.53;;
13975;SDS011;7062;49.792;9.946;2023-06-10T12:05:55;5.57;;;4.13;;
13975;SDS011;7062;49.792;9.946;2023-06-10T12:08:25;3.43;;;3.13;;
13975;SDS011;7062;49.792;9.946;2023-06-10T12:10:51;4.03;;;3.57;;
13975;SDS011;7062;49.792;9.946;2023-06-10T12:13:17;5.33;;;4.90;;
13975;SDS011;7062;49.792;9.946;2023-06-10T12:15:43;5.27;;;4.87;;
13975;SDS011;7062;49.792;9.946;2023-06-10T12:18:18;4.97;;;4.57;;
13975;SDS011;7062;49.792;9.946;2023-06-10T12:20:47;7.50;;;5.37;;
13975;SDS011;7062;49.792;9.946;2023-06-10T12:23:13;5.00;;;4.70;;
13975;SDS011;7062;49.792;9.946;2023-06-10T12:25:42;5.27;;;4.80;;
13975;SDS011;7062;49.792;9.946;2023-06-10T12:28:16;4.57;;;4.27;;
13975;SDS011;7062;49.792;9.946;2023-06-10T12:30:45;4.87;;;4.43;;
13975;SDS011;7062;49.792;9.946;2023-06-10T12:33:17;4.60;;;4.30;;
13975;SDS011;7062;49.792;9.946;2023-06-10T12:35:47;4.90;;;4.60;;
13975;SDS011;7062;49.792;9.946;2023-06-10T12:38:14;5.23;;;4.67;;
13975;SDS011;7062;49.792;9.946;2023-06-10T12:40:52;5.00;;;4.70;;
13975;SDS011;7062;49.792;9.946;2023-06-10T12:43:24;4.73;;;4.43;;
13975;SDS011;7062;49.792;9.946;2023-06-10T12:45:50;4.80;;;4.50;;
13975;SDS011;7062;49.792;9.946;2023-06-10T12:50:42;4.73;;;4.43;;
13975;SDS011;7062;49.792;9.946;2023-06-10T12:53:09;3.93;;;3.73;;
13975;SDS011;7062;49.792;9.946;2023-06-10T12:55:36;4.93;;;4.60;;
13975;SDS011;7062;49.792;9.946;2023-06-10T12:58:02;4.90;;;4.43;;
13975;SDS011;7062;49.792;9.946;2023-06-10T13:00:28;4.97;;;4.57;;
13975;SDS011;7062;49.792;9.946;2023-06-10T13:02:59;4.77;;;4.40;;
13975;SDS011;7062;49.792;9.946;2023-06-10T13:05:26;5.90;;;5.50;;
13975;SDS011;7062;49.792;9.946;2023-06-10T13:07:52;5.43;;;4.93;;
13975;SDS011;7062;49.792;9.946;2023-06-10T13:10:18;4.97;;;4.67;;
13975;SDS011;7062;49.792;9.946;2023-06-10T13:12:44;7.60;;;7.10;;
13975;SDS011;7062;49.792;9.946;2023-06-10T13:15:10;8.20;;;7.60;;
13975;SDS011;7062;49.792;9.946;2023-06-10T13:17:36;5.43;;;5.03;;
13975;SDS011;7062;49.792;9.946;2023-06-10T13:20:06;7.10;;;6.50;;
13975;SDS011;7062;49.792;9.946;2023-06-10T13:22:32;5.40;;;5.07;;
13975;SDS011;7062;49.792;9.946;2023-06-10T13:25:00;5.03;;;4.70;;
13975;SDS011;7062;49.792;9.946;2023-06-10T13:27:26;5.03;;;4.60;;
13975;SDS011;7062;49.792;9.946;2023-06-10T13:29:52;4.40;;;4.07;;
13975;SDS011;7062;49.792;9.946;2023-06-10T13:32:18;5.23;;;4.93;;
13975;SDS011;7062;49.792;9.946;2023-06-10T13:34:43;5.33;;;4.90;;
13975;SDS011;7062;49.792;9.946;2023-06-10T13:37:09;5.37;;;5.07;;
13975;SDS011;7062;49.792;9.946;2023-06-10T13:39:35;4.60;;;4.30;;
13975;SDS011;7062;49.792;9.946;2023-06-10T13:42:01;5.03;;;4.63;;
13975;SDS011;7062;49.792;9.946;2023-06-10T13:44:26;5.00;;;4.67;;
13975;SDS011;7062;49.792;9.946;2023-06-10T13:46:55;5.43;;;5.03;;
13975;SDS011;7062;49.792;9.946;2023-06-10T13:49:21;4.73;;;4.43;;
13975;SDS011;7062;49.792;9.946;2023-06-10T13:51:47;4.97;;;4.67;;
13975;SDS011;7062;49.792;9.946;2023-06-10T13:54:13;5.00;;;4.67;;
13975;SDS011;7062;49.792;9.946;2023-06-10T13:56:40;5.13;;;4.73;;
13975;SDS011;7062;49.792;9.946;2023-06-10T13:59:06;5.40;;;5.00;;
13975;SDS011;7062;49.792;9.946;2023-06-10T14:01:31;4.87;;;4.47;;
13975;SDS011;7062;49.792;9.946;2023-06-10T14:03:57;4.43;;;4.13;;
13975;SDS011;7062;49.792;9.946;2023-06-10T14:06:23;3.73;;;3.43;;
13975;SDS011;7062;49.792;9.946;2023-06-10T14:08:49;3.70;;;3.40;;
13975;SDS011;7062;49.792;9.946;2023-06-10T14:11:15;3.60;;;3.30;;
13975;SDS011;7062;49.792;9.946;2023-06-10T14:13:40;3.43;;;2.87;;
13975;SDS011;7062;49.792;9.946;2023-06-10T14:16:06;4.30;;;3.60;;
13975;SDS011;7062;49.792;9.946;2023-06-10T14:18:32;4.47;;;3.20;;
13975;SDS011;7062;49.792;9.946;2023-06-10T14:20:57;4.17;;;3.77;;
13975;SDS011;7062;49.792;9.946;2023-06-10T14:23:23;4.77;;;4.47;;
13975;SDS011;7062;49.792;9.946;2023-06-10T14:25:50;4.87;;;4.30;;
13975;SDS011;7062;49.792;9.946;2023-06-10T14:28:16;3.73;;;3.53;;
13975;SDS011;7062;49.792;9.946;2023-06-10T14:30:41;4.83;;;4.07;;
13975;SDS011;7062;49.792;9.946;2023-06-10T14:33:07;4.00;;;3.70;;
13975;SDS011;7062;49.792;9.946;2023-06-10T14:35:33;4.07;;;3.77;;
13975;SDS011;7062;49.792;9.946;2023-06-10T14:37:58;3.73;;;3.53;;
13975;SDS011;7062;49.792;9.946;2023-06-10T14:40:24;4.00;;;3.80;;
13975;SDS011;7062;49.792;9.946;2023-06-10T14:42:51;3.90;;;3.70;;
13975;SDS011;7062;49.792;9.946;2023-06-10T14:45:17;3.93;;;3.73;;
13975;SDS011;7062;49.792;9.946;2023-06-10T14:47:42;4.17;;;3.77;;
13975;SDS011;7062;49.792;9.946;2023-06-10T14:50:08;4.23;;;4.03;;
13975;SDS011;7062;49.792;9.946;2023-06-10T14:52:34;3.97;;;3.67;;
13975;SDS011;7062;49.792;9.946;2023-06-10T14:55:00;3.43;;;3.23;;
13975;SDS011;7062;49.792;9.946;2023-06-10T14:57:25;3.73;;;3.43;;
13975;SDS011;7062;49.792;9.946;2023-06-10T14:59:51;2.90;;;2.70;;
13975;SDS011;7062;49.792;9.946;2023-06-10T15:02:16;3.10;;;2.90;;
13975;SDS011;7062;49.792;9.946;2023-06-10T15:04:42;3.00;;;2.80;;
13975;SDS011;7062;49.792;9.946;2023-06-10T15:07:07;2.97;;;2.77;;
13975;SDS011;7062;49.792;9.946;2023-06-10T15:09:33;2.83;;;2.63;;
13975;SDS011;7062;49.792;9.946;2023-06-10T15:11:59;2.90;;;2.60;;
13975;SDS011;7062;49.792;9.946;2023-06-10T15:14:25;2.63;;;2.40;;
13975;SDS011;7062;49.792;9.946;2023-06-10T15:16:51;2.43;;;2.07;;
13975;SDS011;7062;49.792;9.946;2023-06-10T15:19:16;2.60;;;2.40;;